METAR Data
IDs: Format: Raw Decoded Include TAF

Data at: 0654 UTC 24 May 2022

KRDU 240651Z 12006KT 1 1/2SM BR OVC002 20/20 A3005 RMK AO2 SLP173 T02000200 $

KRDU 240523Z 2406/2506 07009KT P6SM SCT006 BKN060
  TEMPO 2406/2409 5SM -SHRA BR OVC006
  FM240900 11006KT 4SM -DZ BR OVC003
  FM241300 08009KT 5SM BR OVC003
  FM241500 35006KT P6SM OVC007
  FM241800 02005KT 4SM -SHRA BR OVC007
  FM242100 04006KT 6SM BR OVC007